sensor_id;sensor_type;location;lat;lon;timestamp;temperature;humidity
66608;DHT22;53462;39.616;8.824;2023-12-20T00:01:07;6.60;99.90
66608;DHT22;53462;39.616;8.824;2023-12-20T00:03:33;6.60;99.90
66608;DHT22;53462;39.616;8.824;2023-12-20T00:05:59;6.60;99.90
66608;DHT22;53462;39.616;8.824;2023-12-20T00:08:25;6.70;99.90
66608;DHT22;53462;39.616;8.824;2023-12-20T00:10:51;6.70;99.90
66608;DHT22;53462;39.616;8.824;2023-12-20T00:13:17;6.80;99.90
66608;DHT22;53462;39.616;8.824;2023-12-20T00:15:43;6.70;99.90
66608;DHT22;53462;39.616;8.824;2023-12-20T00:18:08;6.70;99.90
66608;DHT22;53462;39.616;8.824;2023-12-20T00:20:34;6.70;99.90
66608;DHT22;53462;39.616;8.824;2023-12-20T00:23:01;6.60;99.90
66608;DHT22;53462;39.616;8.824;2023-12-20T00:25:28;6.60;99.90
66608;DHT22;53462;39.616;8.824;2023-12-20T00:27:54;6.50;99.90
66608;DHT22;53462;39.616;8.824;2023-12-20T00:30:19;6.50;99.90
66608;DHT22;53462;39.616;8.824;2023-12-20T00:32:45;6.60;99.90
66608;DHT22;53462;39.616;8.824;2023-12-20T00:35:13;6.40;99.90
66608;DHT22;53462;39.616;8.824;2023-12-20T00:37:39;6.40;99.90
66608;DHT22;53462;39.616;8.824;2023-12-20T00:40:06;6.40;99.90
66608;DHT22;53462;39.616;8.824;2023-12-20T00:42:32;6.50;99.90
66608;DHT22;53462;39.616;8.824;2023-12-20T00:44:59;6.50;99.90
66608;DHT22;53462;39.616;8.824;2023-12-20T00:47:25;6.40;99.90
66608;DHT22;53462;39.616;8.824;2023-12-20T00:49:51;6.50;99.90
66608;DHT22;53462;39.616;8.824;2023-12-20T00:52:17;6.40;99.90
66608;DHT22;53462;39.616;8.824;2023-12-20T00:54:43;6.30;99.90
66608;DHT22;53462;39.616;8.824;2023-12-20T00:57:09;6.40;99.90
66608;DHT22;53462;39.616;8.824;2023-12-20T00:59:35;6.50;99.90
66608;DHT22;53462;39.616;8.824;2023-12-20T01:02:02;6.60;99.90
66608;DHT22;53462;39.616;8.824;2023-12-20T01:04:28;6.60;99.90
66608;DHT22;53462;39.616;8.824;2023-12-20T01:06:54;6.60;99.90
66608;DHT22;53462;39.616;8.824;2023-12-20T01:09:20;6.60;99.90
66608;DHT22;53462;39.616;8.824;2023-12-20T01:11:49;6.60;99.90
66608;DHT22;53462;39.616;8.824;2023-12-20T01:14:15;6.60;99.90
66608;DHT22;53462;39.616;8.824;2023-12-20T01:16:41;6.60;99.90
66608;DHT22;53462;39.616;8.824;2023-12-20T01:19:06;6.60;99.90
66608;DHT22;53462;39.616;8.824;2023-12-20T01:21:32;6.70;99.90
66608;DHT22;53462;39.616;8.824;2023-12-20T01:23:58;6.70;99.90
66608;DHT22;53462;39.616;8.824;2023-12-20T01:26:24;6.60;99.90
66608;DHT22;53462;39.616;8.824;2023-12-20T01:28:50;6.60;99.90
66608;DHT22;53462;39.616;8.824;2023-12-20T01:31:16;6.50;99.90
66608;DHT22;53462;39.616;8.824;2023-12-20T01:33:42;6.50;99.90
66608;DHT22;53462;39.616;8.824;2023-12-20T01:36:08;6.60;99.90
66608;DHT22;53462;39.616;8.824;2023-12-20T01:38:34;6.60;99.90
66608;DHT22;53462;39.616;8.824;2023-12-20T01:41:00;6.40;99.90
66608;DHT22;53462;39.616;8.824;2023-12-20T01:43:26;6.50;99.90
66608;DHT22;53462;39.616;8.824;2023-12-20T01:45:53;6.60;99.90
66608;DHT22;53462;39.616;8.824;2023-12-20T01:48:20;6.60;99.90
66608;DHT22;53462;39.616;8.824;2023-12-20T01:50:47;6.70;99.90
66608;DHT22;53462;39.616;8.824;2023-12-20T01:53:14;6.70;99.90
66608;DHT22;53462;39.616;8.824;2023-12-20T01:55:40;6.80;99.90
66608;DHT22;53462;39.616;8.824;2023-12-20T01:58:08;6.80;99.90
66608;DHT22;53462;39.616;8.824;2023-12-20T02:00:35;6.80;99.90
66608;DHT22;53462;39.616;8.824;2023-12-20T02:03:02;6.70;99.90
66608;DHT22;53462;39.616;8.824;2023-12-20T02:05:32;6.60;99.90
66608;DHT22;53462;39.616;8.824;2023-12-20T02:07:58;6.50;99.90
66608;DHT22;53462;39.616;8.824;2023-12-20T02:10:24;6.50;99.90
66608;DHT22;53462;39.616;8.824;2023-12-20T02:12:50;6.40;99.90
66608;DHT22;53462;39.616;8.824;2023-12-20T02:15:16;6.40;99.90
66608;DHT22;53462;39.616;8.824;2023-12-20T02:17:42;6.50;99.90
66608;DHT22;53462;39.616;8.824;2023-12-20T02:20:09;6.60;99.90
66608;DHT22;53462;39.616;8.824;2023-12-20T02:22:35;6.60;99.90
66608;DHT22;53462;39.616;8.824;2023-12-20T02:25:01;6.50;99.90
66608;DHT22;53462;39.616;8.824;2023-12-20T02:27:28;6.50;99.90
66608;DHT22;53462;39.616;8.824;2023-12-20T02:29:54;6.30;99.90
66608;DHT22;53462;39.616;8.824;2023-12-20T02:32:21;6.40;99.90
66608;DHT22;53462;39.616;8.824;2023-12-20T02:34:48;6.40;99.90
66608;DHT22;53462;39.616;8.824;2023-12-20T02:37:14;6.40;99.90
66608;DHT22;53462;39.616;8.824;2023-12-20T02:39:40;6.40;99.90
66608;DHT22;53462;39.616;8.824;2023-12-20T02:42:06;6.30;99.90
66608;DHT22;53462;39.616;8.824;2023-12-20T02:44:32;6.30;99.90
66608;DHT22;53462;39.616;8.824;2023-12-20T02:46:58;6.20;99.90
66608;DHT22;53462;39.616;8.824;2023-12-20T02:49:24;6.60;99.90
66608;DHT22;53462;39.616;8.824;2023-12-20T02:51:50;6.50;99.90
66608;DHT22;53462;39.616;8.824;2023-12-20T02:54:16;6.50;99.90
66608;DHT22;53462;39.616;8.824;2023-12-20T02:56:42;6.40;99.90
66608;DHT22;53462;39.616;8.824;2023-12-20T02:59:08;6.60;99.90
66608;DHT22;53462;39.616;8.824;2023-12-20T03:01:35;6.60;99.90
66608;DHT22;53462;39.616;8.824;2023-12-20T03:04:01;6.50;99.90
66608;DHT22;53462;39.616;8.824;2023-12-20T03:06:27;6.50;99.90
66608;DHT22;53462;39.616;8.824;2023-12-20T03:08:53;6.40;99.90
66608;DHT22;53462;39.616;8.824;2023-12-20T03:11:19;6.20;99.90
66608;DHT22;53462;39.616;8.824;2023-12-20T03:13:45;6.10;99.90
66608;DHT22;53462;39.616;8.824;2023-12-20T03:16:12;6.10;99.90
66608;DHT22;53462;39.616;8.824;2023-12-20T03:18:38;5.80;99.90
66608;DHT22;53462;39.616;8.824;2023-12-20T03:21:04;5.90;99.90
66608;DHT22;53462;39.616;8.824;2023-12-20T03:23:31;5.90;99.90
66608;DHT22;53462;39.616;8.824;2023-12-20T03:25:59;6.00;99.90
66608;DHT22;53462;39.616;8.824;2023-12-20T03:28:27;6.00;99.90
66608;DHT22;53462;39.616;8.824;2023-12-20T03:30:53;6.10;99.90
66608;DHT22;53462;39.616;8.824;2023-12-20T03:33:19;6.30;99.90
66608;DHT22;53462;39.616;8.824;2023-12-20T03:35:45;6.40;99.90
66608;DHT22;53462;39.616;8.824;2023-12-20T03:38:11;6.40;99.90
66608;DHT22;53462;39.616;8.824;2023-12-20T03:40:37;6.40;99.90
66608;DHT22;53462;39.616;8.824;2023-12-20T03:43:03;6.50;99.90
66608;DHT22;53462;39.616;8.824;2023-12-20T03:45:29;6.50;99.90
66608;DHT22;53462;39.616;8.824;2023-12-20T03:47:55;6.50;99.90
66608;DHT22;53462;39.616;8.824;2023-12-20T03:50:28;6.50;99.90
66608;DHT22;53462;39.616;8.824;2023-12-20T03:52:54;6.60;99.90
66608;DHT22;53462;39.616;8.824;2023-12-20T03:55:20;6.70;99.90
66608;DHT22;53462;39.616;8.824;2023-12-20T03:57:46;6.70;99.90
66608;DHT22;53462;39.616;8.824;2023-12-20T04:00:12;6.80;99.90
66608;DHT22;53462;39.616;8.824;2023-12-20T04:02:41;6.90;99.90
66608;DHT22;53462;39.616;8.824;2023-12-20T04:05:08;6.90;99.90
66608;DHT22;53462;39.616;8.824;2023-12-20T04:07:38;7.00;99.90
66608;DHT22;53462;39.616;8.824;2023-12-20T04:10:05;7.00;99.90
66608;DHT22;53462;39.616;8.824;2023-12-20T04:12:31;7.00;99.90
66608;DHT22;53462;39.616;8.824;2023-12-20T04:14:57;7.10;99.90
66608;DHT22;53462;39.616;8.824;2023-12-20T04:17:23;7.20;99.90
66608;DHT22;53462;39.616;8.824;2023-12-20T04:19:50;7.30;99.90
66608;DHT22;53462;39.616;8.824;2023-12-20T04:22:16;7.40;99.90
66608;DHT22;53462;39.616;8.824;2023-12-20T04:24:42;7.30;99.90
66608;DHT22;53462;39.616;8.824;2023-12-20T04:27:08;7.20;99.90
66608;DHT22;53462;39.616;8.824;2023-12-20T04:29:34;7.30;99.90
66608;DHT22;53462;39.616;8.824;2023-12-20T04:32:00;7.40;99.90
66608;DHT22;53462;39.616;8.824;2023-12-20T04:34:26;7.30;99.90
66608;DHT22;53462;39.616;8.824;2023-12-20T04:36:52;7.30;99.90
66608;DHT22;53462;39.616;8.824;2023-12-20T04:39:18;7.50;99.90
66608;DHT22;53462;39.616;8.824;2023-12-20T04:41:44;7.60;99.90
66608;DHT22;53462;39.616;8.824;2023-12-20T04:44:10;7.70;99.90
66608;DHT22;53462;39.616;8.824;2023-12-20T04:46:36;7.60;99.90
66608;DHT22;53462;39.616;8.824;2023-12-20T04:49:02;7.20;99.90
66608;DHT22;53462;39.616;8.824;2023-12-20T04:51:28;7.00;99.90
66608;DHT22;53462;39.616;8.824;2023-12-20T04:53:54;6.70;99.90
66608;DHT22;53462;39.616;8.824;2023-12-20T04:56:20;6.50;99.90
66608;DHT22;53462;39.616;8.824;2023-12-20T04:58:46;6.40;99.90
66608;DHT22;53462;39.616;8.824;2023-12-20T05:01:13;6.30;99.90
66608;DHT22;53462;39.616;8.824;2023-12-20T05:03:39;6.30;99.90
66608;DHT22;53462;39.616;8.824;2023-12-20T05:06:04;6.30;99.90
66608;DHT22;53462;39.616;8.824;2023-12-20T05:08:30;6.20;99.90
66608;DHT22;53462;39.616;8.824;2023-12-20T05:10:56;6.30;99.90
66608;DHT22;53462;39.616;8.824;2023-12-20T05:13:22;6.20;99.90
66608;DHT22;53462;39.616;8.824;2023-12-20T05:15:48;6.00;99.90
66608;DHT22;53462;39.616;8.824;2023-12-20T05:18:14;6.00;99.90
66608;DHT22;53462;39.616;8.824;2023-12-20T05:20:40;5.90;99.90
66608;DHT22;53462;39.616;8.824;2023-12-20T05:23:06;5.80;99.90
66608;DHT22;53462;39.616;8.824;2023-12-20T05:25:32;5.80;99.90
66608;DHT22;53462;39.616;8.824;2023-12-20T05:27:58;5.80;99.90
66608;DHT22;53462;39.616;8.824;2023-12-20T05:30:24;5.70;99.90
66608;DHT22;53462;39.616;8.824;2023-12-20T05:32:50;5.70;99.90
66608;DHT22;53462;39.616;8.824;2023-12-20T05:35:17;5.70;99.90
66608;DHT22;53462;39.616;8.824;2023-12-20T05:37:43;5.60;99.90
66608;DHT22;53462;39.616;8.824;2023-12-20T05:40:10;5.80;99.90
66608;DHT22;53462;39.616;8.824;2023-12-20T05:42:36;5.80;99.90
66608;DHT22;53462;39.616;8.824;2023-12-20T05:45:04;5.80;99.90
66608;DHT22;53462;39.616;8.824;2023-12-20T05:47:31;5.80;99.90
66608;DHT22;53462;39.616;8.824;2023-12-20T05:49:57;5.90;99.90
66608;DHT22;53462;39.616;8.824;2023-12-20T05:52:23;6.00;99.90
66608;DHT22;53462;39.616;8.824;2023-12-20T05:54:49;6.10;99.90
66608;DHT22;53462;39.616;8.824;2023-12-20T05:57:14;6.10;99.90
66608;DHT22;53462;39.616;8.824;2023-12-20T05:59:40;6.10;99.90
66608;DHT22;53462;39.616;8.824;2023-12-20T06:02:06;6.00;99.90
66608;DHT22;53462;39.616;8.824;2023-12-20T06:04:32;6.20;99.90
66608;DHT22;53462;39.616;8.824;2023-12-20T06:06:59;6.10;99.90
66608;DHT22;53462;39.616;8.824;2023-12-20T06:09:28;6.20;99.90
66608;DHT22;53462;39.616;8.824;2023-12-20T06:11:54;6.30;99.90
66608;DHT22;53462;39.616;8.824;2023-12-20T06:14:20;6.30;99.90
66608;DHT22;53462;39.616;8.824;2023-12-20T06:16:46;6.40;99.90
66608;DHT22;53462;39.616;8.824;2023-12-20T06:19:12;6.30;99.90
66608;DHT22;53462;39.616;8.824;2023-12-20T06:21:38;6.30;99.90
66608;DHT22;53462;39.616;8.824;2023-12-20T06:24:04;6.40;99.90
66608;DHT22;53462;39.616;8.824;2023-12-20T06:26:30;6.50;99.90
66608;DHT22;53462;39.616;8.824;2023-12-20T06:28:56;6.50;99.90
66608;DHT22;53462;39.616;8.824;2023-12-20T06:31:22;6.40;99.90
66608;DHT22;53462;39.616;8.824;2023-12-20T06:33:47;6.30;99.90
66608;DHT22;53462;39.616;8.824;2023-12-20T06:36:23;6.40;99.90
66608;DHT22;53462;39.616;8.824;2023-12-20T06:38:50;6.60;99.90
66608;DHT22;53462;39.616;8.824;2023-12-20T06:41:16;6.60;99.90
66608;DHT22;53462;39.616;8.824;2023-12-20T06:43:42;6.50;99.90
66608;DHT22;53462;39.616;8.824;2023-12-20T06:46:08;6.50;99.90
66608;DHT22;53462;39.616;8.824;2023-12-20T06:48:34;6.70;99.90
66608;DHT22;53462;39.616;8.824;2023-12-20T06:51:01;6.70;99.90
66608;DHT22;53462;39.616;8.824;2023-12-20T06:53:30;6.80;99.90
66608;DHT22;53462;39.616;8.824;2023-12-20T06:55:56;7.00;99.90
66608;DHT22;53462;39.616;8.824;2023-12-20T06:58:22;6.80;99.90
66608;DHT22;53462;39.616;8.824;2023-12-20T07:00:49;6.70;99.90
66608;DHT22;53462;39.616;8.824;2023-12-20T07:03:15;6.90;99.90
66608;DHT22;53462;39.616;8.824;2023-12-20T07:05:42;6.90;99.90
66608;DHT22;53462;39.616;8.824;2023-12-20T07:08:08;7.10;99.90
66608;DHT22;53462;39.616;8.824;2023-12-20T07:10:33;7.10;99.90
66608;DHT22;53462;39.616;8.824;2023-12-20T07:13:00;7.10;99.90
66608;DHT22;53462;39.616;8.824;2023-12-20T07:15:26;7.30;99.90
66608;DHT22;53462;39.616;8.824;2023-12-20T07:17:52;7.50;99.90
66608;DHT22;53462;39.616;8.824;2023-12-20T07:20:18;7.60;99.90
66608;DHT22;53462;39.616;8.824;2023-12-20T07:22:44;7.80;99.90
66608;DHT22;53462;39.616;8.824;2023-12-20T07:25:10;7.70;99.90
66608;DHT22;53462;39.616;8.824;2023-12-20T07:27:36;7.90;99.90
66608;DHT22;53462;39.616;8.824;2023-12-20T07:30:02;8.10;99.90
66608;DHT22;53462;39.616;8.824;2023-12-20T07:32:28;8.10;99.90
66608;DHT22;53462;39.616;8.824;2023-12-20T07:34:54;8.20;99.90
66608;DHT22;53462;39.616;8.824;2023-12-20T07:37:20;8.30;99.90
66608;DHT22;53462;39.616;8.824;2023-12-20T07:39:46;8.40;99.90
66608;DHT22;53462;39.616;8.824;2023-12-20T07:42:12;8.50;99.90
66608;DHT22;53462;39.616;8.824;2023-12-20T07:44:38;8.80;99.90
66608;DHT22;53462;39.616;8.824;2023-12-20T07:47:04;9.00;99.90
66608;DHT22;53462;39.616;8.824;2023-12-20T07:49:31;8.70;99.90
66608;DHT22;53462;39.616;8.824;2023-12-20T07:51:57;8.60;99.90
66608;DHT22;53462;39.616;8.824;2023-12-20T07:54:23;8.60;99.90
66608;DHT22;53462;39.616;8.824;2023-12-20T07:56:49;8.60;99.90
66608;DHT22;53462;39.616;8.824;2023-12-20T07:59:18;8.80;99.90
66608;DHT22;53462;39.616;8.824;2023-12-20T08:01:44;8.70;99.90
66608;DHT22;53462;39.616;8.824;2023-12-20T08:04:10;8.80;99.90
66608;DHT22;53462;39.616;8.824;2023-12-20T08:06:36;8.80;99.90
66608;DHT22;53462;39.616;8.824;2023-12-20T08:09:02;8.80;99.90
66608;DHT22;53462;39.616;8.824;2023-12-20T08:11:28;8.90;99.90
66608;DHT22;53462;39.616;8.824;2023-12-20T08:13:55;9.00;99.90
66608;DHT22;53462;39.616;8.824;2023-12-20T08:16:21;9.10;99.90
66608;DHT22;53462;39.616;8.824;2023-12-20T08:18:47;9.20;99.90
66608;DHT22;53462;39.616;8.824;2023-12-20T08:21:13;9.10;99.90
66608;DHT22;53462;39.616;8.824;2023-12-20T08:23:39;9.10;99.90
66608;DHT22;53462;39.616;8.824;2023-12-20T08:26:06;9.20;99.90
66608;DHT22;53462;39.616;8.824;2023-12-20T08:28:32;9.10;99.90
66608;DHT22;53462;39.616;8.824;2023-12-20T08:30:58;9.30;99.90
66608;DHT22;53462;39.616;8.824;2023-12-20T08:33:24;9.50;99.90
66608;DHT22;53462;39.616;8.824;2023-12-20T08:35:50;10.20;99.90
66608;DHT22;53462;39.616;8.824;2023-12-20T08:38:16;9.80;99.90
66608;DHT22;53462;39.616;8.824;2023-12-20T08:40:43;9.70;99.90
66608;DHT22;53462;39.616;8.824;2023-12-20T08:43:10;9.90;99.90
66608;DHT22;53462;39.616;8.824;2023-12-20T08:45:36;10.10;99.90
66608;DHT22;53462;39.616;8.824;2023-12-20T08:48:02;11.30;99.90
66608;DHT22;53462;39.616;8.824;2023-12-20T08:50:29;13.90;99.90
66608;DHT22;53462;39.616;8.824;2023-12-20T08:52:55;12.70;99.90
66608;DHT22;53462;39.616;8.824;2023-12-20T08:55:21;15.10;99.90
66608;DHT22;53462;39.616;8.824;2023-12-20T08:57:47;13.70;97.00
66608;DHT22;53462;39.616;8.824;2023-12-20T09:00:13;14.00;99.90
66608;DHT22;53462;39.616;8.824;2023-12-20T09:02:39;14.80;90.20
66608;DHT22;53462;39.616;8.824;2023-12-20T09:05:05;15.50;92.60
66608;DHT22;53462;39.616;8.824;2023-12-20T09:07:31;18.50;86.60
66608;DHT22;53462;39.616;8.824;2023-12-20T09:09:58;19.70;75.00
66608;DHT22;53462;39.616;8.824;2023-12-20T09:12:24;20.80;68.40
66608;DHT22;53462;39.616;8.824;2023-12-20T09:14:51;16.80;79.50
66608;DHT22;53462;39.616;8.824;2023-12-20T09:17:18;17.10;85.50
66608;DHT22;53462;39.616;8.824;2023-12-20T09:19:45;15.90;86.80
66608;DHT22;53462;39.616;8.824;2023-12-20T09:22:11;15.50;92.80
66608;DHT22;53462;39.616;8.824;2023-12-20T09:24:37;19.70;83.80
66608;DHT22;53462;39.616;8.824;2023-12-20T09:27:04;19.50;71.60
66608;DHT22;53462;39.616;8.824;2023-12-20T09:29:31;17.40;79.80
66608;DHT22;53462;39.616;8.824;2023-12-20T09:31:57;19.10;83.90
66608;DHT22;53462;39.616;8.824;2023-12-20T09:34:23;23.80;64.90
66608;DHT22;53462;39.616;8.824;2023-12-20T09:36:51;25.50;55.90
66608;DHT22;53462;39.616;8.824;2023-12-20T09:39:18;26.30;51.80
66608;DHT22;53462;39.616;8.824;2023-12-20T09:42:06;27.10;47.10
66608;DHT22;53462;39.616;8.824;2023-12-20T09:44:33;27.10;46.40
66608;DHT22;53462;39.616;8.824;2023-12-20T09:47:03;26.80;46.90
66608;DHT22;53462;39.616;8.824;2023-12-20T09:49:30;25.80;48.30
66608;DHT22;53462;39.616;8.824;2023-12-20T09:51:56;25.70;46.80
66608;DHT22;53462;39.616;8.824;2023-12-20T09:54:23;24.70;52.40
66608;DHT22;53462;39.616;8.824;2023-12-20T09:56:50;23.70;52.50
66608;DHT22;53462;39.616;8.824;2023-12-20T09:59:16;20.50;60.10
66608;DHT22;53462;39.616;8.824;2023-12-20T10:01:42;19.00;66.90
66608;DHT22;53462;39.616;8.824;2023-12-20T10:04:10;17.10;71.90
66608;DHT22;53462;39.616;8.824;2023-12-20T10:06:42;15.90;79.40
66608;DHT22;53462;39.616;8.824;2023-12-20T10:09:09;15.60;82.30
66608;DHT22;53462;39.616;8.824;2023-12-20T10:11:36;15.60;81.30
66608;DHT22;53462;39.616;8.824;2023-12-20T10:14:06;15.50;81.60
66608;DHT22;53462;39.616;8.824;2023-12-20T10:16:33;15.80;80.60
66608;DHT22;53462;39.616;8.824;2023-12-20T10:19:00;16.40;79.50
66608;DHT22;53462;39.616;8.824;2023-12-20T10:21:29;16.30;76.30
66608;DHT22;53462;39.616;8.824;2023-12-20T10:23:56;16.20;77.70
66608;DHT22;53462;39.616;8.824;2023-12-20T10:26:24;20.60;68.10
66608;DHT22;53462;39.616;8.824;2023-12-20T10:28:52;24.70;49.80
66608;DHT22;53462;39.616;8.824;2023-12-20T10:31:31;24.60;46.70
66608;DHT22;53462;39.616;8.824;2023-12-20T10:33:59;21.60;53.60
66608;DHT22;53462;39.616;8.824;2023-12-20T10:36:26;24.40;48.80
66608;DHT22;53462;39.616;8.824;2023-12-20T10:38:53;26.60;43.30
66608;DHT22;53462;39.616;8.824;2023-12-20T10:41:30;27.60;40.80
66608;DHT22;53462;39.616;8.824;2023-12-20T10:44:00;27.20;41.00
66608;DHT22;53462;39.616;8.824;2023-12-20T10:46:29;28.20;39.60
66608;DHT22;53462;39.616;8.824;2023-12-20T10:48:56;28.30;38.90
66608;DHT22;53462;39.616;8.824;2023-12-20T10:51:23;28.10;38.90
66608;DHT22;53462;39.616;8.824;2023-12-20T10:53:55;28.30;38.70
66608;DHT22;53462;39.616;8.824;2023-12-20T10:56:22;28.10;39.60
66608;DHT22;53462;39.616;8.824;2023-12-20T10:58:52;25.80;42.10
66608;DHT22;53462;39.616;8.824;2023-12-20T11:01:19;25.40;45.90
66608;DHT22;53462;39.616;8.824;2023-12-20T11:03:52;24.50;48.20
66608;DHT22;53462;39.616;8.824;2023-12-20T11:09:24;18.60;63.10
66608;DHT22;53462;39.616;8.824;2023-12-20T11:14:42;17.30;73.70
66608;DHT22;53462;39.616;8.824;2023-12-20T11:17:11;18.20;69.20
66608;DHT22;53462;39.616;8.824;2023-12-20T11:22:33;23.30;51.60
66608;DHT22;53462;39.616;8.824;2023-12-20T11:25:10;23.50;50.20
66608;DHT22;53462;39.616;8.824;2023-12-20T11:27:40;18.70;62.50
66608;DHT22;53462;39.616;8.824;2023-12-20T11:30:07;17.20;69.80
66608;DHT22;53462;39.616;8.824;2023-12-20T11:32:35;16.50;73.10
66608;DHT22;53462;39.616;8.824;2023-12-20T11:37:38;15.90;77.50
66608;DHT22;53462;39.616;8.824;2023-12-20T11:40:12;17.30;74.90
66608;DHT22;53462;39.616;8.824;2023-12-20T11:42:39;18.00;71.00
66608;DHT22;53462;39.616;8.824;2023-12-20T11:45:09;17.70;69.90
66608;DHT22;53462;39.616;8.824;2023-12-20T11:47:35;17.40;71.20
66608;DHT22;53462;39.616;8.824;2023-12-20T11:50:01;17.30;70.90
66608;DHT22;53462;39.616;8.824;2023-12-20T11:52:30;16.70;72.10
66608;DHT22;53462;39.616;8.824;2023-12-20T11:54:57;16.90;72.90
66608;DHT22;53462;39.616;8.824;2023-12-20T11:57:23;16.30;72.10
66608;DHT22;53462;39.616;8.824;2023-12-20T11:59:49;16.50;74.30
66608;DHT22;53462;39.616;8.824;2023-12-20T12:02:15;17.50;70.80
66608;DHT22;53462;39.616;8.824;2023-12-20T12:04:41;17.90;69.00
66608;DHT22;53462;39.616;8.824;2023-12-20T12:07:07;17.70;68.40
66608;DHT22;53462;39.616;8.824;2023-12-20T12:09:34;17.30;70.40
66608;DHT22;53462;39.616;8.824;2023-12-20T12:12:00;17.40;71.10
66608;DHT22;53462;39.616;8.824;2023-12-20T12:14:26;17.40;70.70
66608;DHT22;53462;39.616;8.824;2023-12-20T12:16:52;17.00;71.90
66608;DHT22;53462;39.616;8.824;2023-12-20T12:19:23;16.70;72.00
66608;DHT22;53462;39.616;8.824;2023-12-20T12:22:08;16.10;73.50
66608;DHT22;53462;39.616;8.824;2023-12-20T12:24:46;15.50;77.20
66608;DHT22;53462;39.616;8.824;2023-12-20T12:27:13;15.20;79.70
66608;DHT22;53462;39.616;8.824;2023-12-20T12:29:40;14.80;82.10
66608;DHT22;53462;39.616;8.824;2023-12-20T12:32:09;14.60;84.40
66608;DHT22;53462;39.616;8.824;2023-12-20T12:34:36;14.60;86.30
66608;DHT22;53462;39.616;8.824;2023-12-20T12:37:05;14.40;87.60
66608;DHT22;53462;39.616;8.824;2023-12-20T12:39:31;14.30;88.70
66608;DHT22;53462;39.616;8.824;2023-12-20T12:41:57;14.40;89.60
66608;DHT22;53462;39.616;8.824;2023-12-20T12:44:23;14.50;89.90
66608;DHT22;53462;39.616;8.824;2023-12-20T12:46:52;14.70;89.50
66608;DHT22;53462;39.616;8.824;2023-12-20T12:49:20;14.50;89.90
66608;DHT22;53462;39.616;8.824;2023-12-20T12:51:47;14.30;90.30
66608;DHT22;53462;39.616;8.824;2023-12-20T12:54:13;14.40;91.00
66608;DHT22;53462;39.616;8.824;2023-12-20T12:56:41;14.60;90.80
66608;DHT22;53462;39.616;8.824;2023-12-20T12:59:07;14.50;90.00
66608;DHT22;53462;39.616;8.824;2023-12-20T13:01:34;14.60;88.90
66608;DHT22;53462;39.616;8.824;2023-12-20T13:04:00;14.70;88.30
66608;DHT22;53462;39.616;8.824;2023-12-20T13:06:28;14.70;86.60
66608;DHT22;53462;39.616;8.824;2023-12-20T13:08:54;15.00;85.00
66608;DHT22;53462;39.616;8.824;2023-12-20T13:11:20;15.00;82.20
66608;DHT22;53462;39.616;8.824;2023-12-20T13:13:46;14.80;81.20
66608;DHT22;53462;39.616;8.824;2023-12-20T13:16:12;14.60;81.00
66608;DHT22;53462;39.616;8.824;2023-12-20T13:18:38;14.40;82.10
66608;DHT22;53462;39.616;8.824;2023-12-20T13:21:08;14.40;82.30
66608;DHT22;53462;39.616;8.824;2023-12-20T13:23:34;14.60;80.50
66608;DHT22;53462;39.616;8.824;2023-12-20T13:26:00;15.20;79.80
66608;DHT22;53462;39.616;8.824;2023-12-20T13:28:26;16.00;77.00
66608;DHT22;53462;39.616;8.824;2023-12-20T13:30:52;16.80;70.70
66608;DHT22;53462;39.616;8.824;2023-12-20T13:33:18;15.90;70.20
66608;DHT22;53462;39.616;8.824;2023-12-20T13:35:44;15.10;72.70
66608;DHT22;53462;39.616;8.824;2023-12-20T13:38:10;14.60;74.30
66608;DHT22;53462;39.616;8.824;2023-12-20T13:40:36;14.40;76.40
66608;DHT22;53462;39.616;8.824;2023-12-20T13:43:01;14.10;78.30
66608;DHT22;53462;39.616;8.824;2023-12-20T13:45:28;14.00;79.70
66608;DHT22;53462;39.616;8.824;2023-12-20T13:47:54;14.00;80.20
66608;DHT22;53462;39.616;8.824;2023-12-20T13:50:20;13.90;80.50
66608;DHT22;53462;39.616;8.824;2023-12-20T13:52:46;13.90;81.70
66608;DHT22;53462;39.616;8.824;2023-12-20T13:55:12;13.80;81.50
66608;DHT22;53462;39.616;8.824;2023-12-20T13:57:38;13.70;82.70
66608;DHT22;53462;39.616;8.824;2023-12-20T14:00:05;13.70;83.80
66608;DHT22;53462;39.616;8.824;2023-12-20T14:02:32;13.70;84.10
66608;DHT22;53462;39.616;8.824;2023-12-20T14:04:58;13.60;84.10
66608;DHT22;53462;39.616;8.824;2023-12-20T14:07:24;13.50;84.10
66608;DHT22;53462;39.616;8.824;2023-12-20T14:09:50;13.60;84.20
66608;DHT22;53462;39.616;8.824;2023-12-20T14:12:16;13.50;84.10
66608;DHT22;53462;39.616;8.824;2023-12-20T14:14:42;13.50;84.50
66608;DHT22;53462;39.616;8.824;2023-12-20T14:17:09;13.40;84.20
66608;DHT22;53462;39.616;8.824;2023-12-20T14:19:35;13.40;84.60
66608;DHT22;53462;39.616;8.824;2023-12-20T14:22:01;13.40;84.30
66608;DHT22;53462;39.616;8.824;2023-12-20T14:24:27;13.30;84.50
66608;DHT22;53462;39.616;8.824;2023-12-20T14:26:53;13.20;85.20
66608;DHT22;53462;39.616;8.824;2023-12-20T14:29:19;13.20;85.80
66608;DHT22;53462;39.616;8.824;2023-12-20T14:31:45;13.30;86.00
66608;DHT22;53462;39.616;8.824;2023-12-20T14:34:11;13.20;86.40
66608;DHT22;53462;39.616;8.824;2023-12-20T14:36:37;13.20;87.00
66608;DHT22;53462;39.616;8.824;2023-12-20T14:39:03;13.20;87.60
66608;DHT22;53462;39.616;8.824;2023-12-20T14:41:30;13.20;88.00
66608;DHT22;53462;39.616;8.824;2023-12-20T14:43:56;13.20;88.60
66608;DHT22;53462;39.616;8.824;2023-12-20T14:46:22;13.10;89.00
66608;DHT22;53462;39.616;8.824;2023-12-20T14:48:48;13.10;89.60
66608;DHT22;53462;39.616;8.824;2023-12-20T14:51:15;13.10;90.10
66608;DHT22;53462;39.616;8.824;2023-12-20T14:53:41;13.00;90.80
66608;DHT22;53462;39.616;8.824;2023-12-20T14:56:08;13.00;91.50
66608;DHT22;53462;39.616;8.824;2023-12-20T14:58:33;13.00;92.50
66608;DHT22;53462;39.616;8.824;2023-12-20T15:01:00;13.00;93.60
66608;DHT22;53462;39.616;8.824;2023-12-20T15:03:26;12.90;94.90
66608;DHT22;53462;39.616;8.824;2023-12-20T15:05:52;12.90;96.60
66608;DHT22;53462;39.616;8.824;2023-12-20T15:08:18;12.80;98.70
66608;DHT22;53462;39.616;8.824;2023-12-20T15:10:44;12.80;99.90
66608;DHT22;53462;39.616;8.824;2023-12-20T15:13:09;12.70;99.90
66608;DHT22;53462;39.616;8.824;2023-12-20T15:15:35;12.70;99.90
66608;DHT22;53462;39.616;8.824;2023-12-20T15:18:03;12.60;99.90
66608;DHT22;53462;39.616;8.824;2023-12-20T15:20:29;12.50;99.90
66608;DHT22;53462;39.616;8.824;2023-12-20T15:22:55;12.50;99.90
66608;DHT22;53462;39.616;8.824;2023-12-20T15:25:24;12.40;99.90
66608;DHT22;53462;39.616;8.824;2023-12-20T15:27:50;12.30;99.90
66608;DHT22;53462;39.616;8.824;2023-12-20T15:30:19;12.20;99.90
66608;DHT22;53462;39.616;8.824;2023-12-20T15:32:45;12.20;99.90
66608;DHT22;53462;39.616;8.824;2023-12-20T15:35:11;12.30;99.90
66608;DHT22;53462;39.616;8.824;2023-12-20T15:37:40;12.30;99.90
66608;DHT22;53462;39.616;8.824;2023-12-20T15:40:09;12.30;99.90
66608;DHT22;53462;39.616;8.824;2023-12-20T15:42:37;12.30;99.90
66608;DHT22;53462;39.616;8.824;2023-12-20T15:45:04;12.30;99.90
66608;DHT22;53462;39.616;8.824;2023-12-20T15:47:31;12.30;99.90